Laguna Beach, CA

4:21 AM PDT on August 20, 2014 (GMT -0700)
El Niguel Heights | Change Station
CLOSE
Current Station
Personal Weather Station
Location: Laguna Niguel, CA
Elevation: 470 ft
Nearby Weather Stations

Elev 470 ft 33.51 °N, 117.71 °W | Updated 1 minute ago

Overcast
Overcast
64.9 °F
Feels Like 64.9 °F
N
0.0
Wind Variable Wind from NNE
Gusts 0.0 mph

Today
High -- | Low -- °F
--% Chance of Precip.
Yesterday
High -- | Low -- °F
Precip. -- in
6:16 AM 7:31 PM
Waning Crescent, 22% visible
Pressure 29.89 in
Visibility 10.0 miles
Clouds Overcast 2500 ft
Dew Point 60 °F
Humidity 85%
Rainfall 0.00 in
Snow Depth Not available.
UV 0.0 out of 12
Pollen 5.60 out of 12
Ozone Good
Flu Activity Not available.
METAR KSNA 201053Z AUTO 11004KT 10SM OVC025 22/15 A2990 RMK AO2 SLP122 T02170150 TSNO

More Conditions Fewer Conditions

Pressure 29.89 in
Visibility 10.0 miles
Clouds Overcast 2500 ft
Dew Point 60 °F
Humidity 85%
Rainfall 0.00 in
Snow Depth Not available.
UV 0.0 out of 12
Pollen 5.60 out of 12
Ozone Good
Flu Activity Not available.
METAR KSNA 201053Z AUTO 11004KT 10SM OVC025 22/15 A2990 RMK AO2 SLP122 T02170150 TSNO

More Conditions Fewer Conditions

10-Day Weather Forecast

Almanac

Astronomy

Aug. 20, 2014 Rise Set
Actual Time 6:16 AM PDT 7:31 PM PDT
Civil Twilight 5:50 AM PDT 7:57 PM PDT
Nautical Twilight 5:19 AM PDT 8:27 PM PDT
Astronomical Twilight 4:47 AM PDT 8:59 PM PDT
Moon 2:05 AM PDT 4:14 PM PDT
Length of Visible Light 14h 06m
Length of Day
13h 14m
Tomorrow will be 1m 52s shorter.
Waning Crescent, 22% of the Moon is Illuminated
Today
Waning Crescent
Aug 25
New
Sep 2
First Quarter
Sep 8
Full
Sep 15
Last Quarter

Today's Extremes

State Highs State Lows

Community

WunderPhotos

Upload Photos

1,745,611 photos uploaded!

Nearby

Air Quality

  Air Quality AQ Index Pollutant
Yesterday Good
OZONE
Current Good
OZONE
Wednesday Good
PM10
Wednesday Good
OZONE
Wednesday Good
CO
Wednesday Good
NO2

Snow Depth

Station Depth Elevation
Leavitt Lake 0 in 9400 ft
Leavitt Meadows 1 in 7200 ft
Ebbetts Pass 0 in 8700 ft
Monitor Pass 0 in 8350 ft
Blue Lakes 0 in 8000 ft

Earthquake Activity

City Distance Mag. Time & Date
Malibu Beach, California 65 miles 3.4 10:03 AM PDT
2014-08-15
Yucca Valley, California 90 miles 3.8 8:57 PM PDT
2014-08-14
Salton City, California 101 miles 2.6 6:58 AM PDT
2014-08-14
Ojai, California 108 miles 2.6 8:43 PM PDT
2014-08-13
Minimum magnitude displayed is 2.5.

Coastal Water Temperatures

Place Temperature
Santa Monica Pier 71.1 °F
Los Angeles, CA 66.9 °F
La Jolla, CA 72.0 °F

Nearby Weather Stations